Terminal Aerodrome Forecast
Issued by NWS Jackson, KY

Home | Current Version | Previous Version | Text Only | Print | Product List | Glossary On
Versions: 1 2 3 4 5 6 7 8 9 10 11 12 13 14 15 16 17 18 19 20 21 22 23 24 25 26 27
000
FTUS43 KJKL 191500 AAA
TAFJKL
TAF AMD
KJKL 191504Z 1915/2012 00000KT P6SM BKN007 OVC015
     FM191600 VRB03KT P6SM SCT008 BKN015
     FM191730 VRB05KT P6SM VCTS BKN050CB
     FM200100 00000KT 5SM BR SCT050
     FM200800 00000KT 1/2SM FG VV002=

USA.gov is the U.S. government's official web portal to all federal, state and local government web resources and services.